Baltimore, MD

2:47 PM EDT on July 26, 2016 (GMT -0400)
Bachstraße | | Change Station

Elev 0 ft 39.28 °N, 76.62 °W | Updated 5 minutes ago

Mostly Cloudy
Mostly Cloudy
98.2 °F
Feels Like 106 °F
N
0.6
Wind Variable Wind from South
Gusts 2.5 mph

Today
High -- | Low -- °F
--% Chance of Precip.
Yesterday
High -- | Low -- °F
Precip. -- in
Pressure 29.94 in
Visibility 10.0 miles
Clouds Scattered Clouds 6500 ft
Scattered Clouds 9000 ft
Mostly Cloudy 14000 ft
Mostly Cloudy 25000 ft
Heat Index 106 °F
Dew Point 71 °F
Humidity 41%
Rainfall 0.00 in
Snow Depth Not available.
6:01 AM 8:23 PM
Waning Gibbous, 52% visible
METAR KBWI 261754Z 31008KT 10SM SCT065 SCT090 BKN140 BKN250 34/19 A2994 RMK AO2 SLP136 T03440189 10356 20261 58005
Pressure 29.94 in
Visibility 10.0 miles
Clouds Scattered Clouds 6500 ft
Scattered Clouds 9000 ft
Mostly Cloudy 14000 ft
Mostly Cloudy 25000 ft
Heat Index 106 °F
Dew Point 71 °F
Humidity 41%
Rainfall 0.00 in
Snow Depth Not available.
6:01 AM 8:23 PM
Waning Gibbous, 52% visible
METAR KBWI 261754Z 31008KT 10SM SCT065 SCT090 BKN140 BKN250 34/19 A2994 RMK AO2 SLP136 T03440189 10356 20261 58005

10-Day Weather Forecast

Almanac

Astronomy

Jul. 26, 2016 Rise Set
Actual Time
Civil Twilight
Nautical Twilight
Astronomical Twilight
Moon
Length of Visible Light
Length of Day
Tomorrow will be .
, % of the Moon is Illuminated

Today's Extremes

State Highs State Lows

Community

WunderPhotos

Upload Photos

1,927,653 photos uploaded!

WunderBlog® & News

Nearby

Air Quality

  Air Quality AQ Index Pollutant
Not available.

Snow Depth

Station Depth Elevation

Earthquake Activity

City Distance Mag. Time & Date
Minimum magnitude displayed is 2.5.

Coastal Water Temperatures

Place Temperature

Stations

Nearby Weather Stations

Station Location Temp. Windchill Dew Point Humidity Wind Precip. Elev Updated Type
                   

Watches & Warnings

There are currently no watches in effect.